sensor_id;sensor_type;location;lat;lon;timestamp;temperature;humidity
15241;DHT22;7723;52.170;9.978;2022-08-25T00:00:48;18.10;25.60
15241;DHT22;7723;52.170;9.978;2022-08-25T00:03:15;18.10;29.10
15241;DHT22;7723;52.170;9.978;2022-08-25T00:05:44;18.00;30.40
15241;DHT22;7723;52.170;9.978;2022-08-25T00:08:11;17.90;33.00
15241;DHT22;7723;52.170;9.978;2022-08-25T00:10:38;17.90;34.90
15241;DHT22;7723;52.170;9.978;2022-08-25T00:13:07;17.90;36.80
15241;DHT22;7723;52.170;9.978;2022-08-25T00:15:35;17.80;38.80
15241;DHT22;7723;52.170;9.978;2022-08-25T00:18:03;17.80;41.90
15241;DHT22;7723;52.170;9.978;2022-08-25T00:20:31;17.80;44.60
15241;DHT22;7723;52.170;9.978;2022-08-25T00:22:59;17.80;46.70
15241;DHT22;7723;52.170;9.978;2022-08-25T00:25:26;17.80;49.50
15241;DHT22;7723;52.170;9.978;2022-08-25T00:27:53;17.80;49.60
15241;DHT22;7723;52.170;9.978;2022-08-25T00:30:22;17.70;52.30
15241;DHT22;7723;52.170;9.978;2022-08-25T00:32:49;17.60;54.00
15241;DHT22;7723;52.170;9.978;2022-08-25T00:35:16;17.60;57.30
15241;DHT22;7723;52.170;9.978;2022-08-25T00:37:44;17.50;59.90
15241;DHT22;7723;52.170;9.978;2022-08-25T00:40:12;17.40;64.20
15241;DHT22;7723;52.170;9.978;2022-08-25T00:42:39;17.30;67.80
15241;DHT22;7723;52.170;9.978;2022-08-25T00:45:08;17.30;71.30
15241;DHT22;7723;52.170;9.978;2022-08-25T00:47:35;17.30;73.00
15241;DHT22;7723;52.170;9.978;2022-08-25T00:50:06;17.30;73.90
15241;DHT22;7723;52.170;9.978;2022-08-25T00:52:37;17.30;73.60
15241;DHT22;7723;52.170;9.978;2022-08-25T00:55:12;17.30;74.70
15241;DHT22;7723;52.170;9.978;2022-08-25T00:57:43;17.30;74.70
15241;DHT22;7723;52.170;9.978;2022-08-25T01:00:17;17.30;76.10
15241;DHT22;7723;52.170;9.978;2022-08-25T01:02:45;17.30;77.10
15241;DHT22;7723;52.170;9.978;2022-08-25T01:05:12;17.30;76.60
15241;DHT22;7723;52.170;9.978;2022-08-25T01:07:40;17.30;75.90
15241;DHT22;7723;52.170;9.978;2022-08-25T01:10:09;17.30;77.00
15241;DHT22;7723;52.170;9.978;2022-08-25T01:12:40;17.20;75.90
15241;DHT22;7723;52.170;9.978;2022-08-25T01:15:09;17.10;78.50
15241;DHT22;7723;52.170;9.978;2022-08-25T01:17:45;17.10;81.40
15241;DHT22;7723;52.170;9.978;2022-08-25T01:20:13;17.10;81.60
15241;DHT22;7723;52.170;9.978;2022-08-25T01:22:42;17.00;84.80
15241;DHT22;7723;52.170;9.978;2022-08-25T01:25:21;17.00;87.90
15241;DHT22;7723;52.170;9.978;2022-08-25T01:27:49;17.00;88.00
15241;DHT22;7723;52.170;9.978;2022-08-25T01:30:19;16.90;86.20
15241;DHT22;7723;52.170;9.978;2022-08-25T01:32:46;17.10;81.60
15241;DHT22;7723;52.170;9.978;2022-08-25T01:35:14;17.00;83.30
15241;DHT22;7723;52.170;9.978;2022-08-25T01:37:43;16.90;86.20
15241;DHT22;7723;52.170;9.978;2022-08-25T01:40:11;16.80;88.90
15241;DHT22;7723;52.170;9.978;2022-08-25T01:43:06;16.80;89.50
15241;DHT22;7723;52.170;9.978;2022-08-25T01:45:36;16.70;90.30
15241;DHT22;7723;52.170;9.978;2022-08-25T01:48:04;16.70;92.40
15241;DHT22;7723;52.170;9.978;2022-08-25T01:50:32;16.70;91.90
15241;DHT22;7723;52.170;9.978;2022-08-25T01:53:03;16.70;91.30
15241;DHT22;7723;52.170;9.978;2022-08-25T01:55:33;16.60;92.30
15241;DHT22;7723;52.170;9.978;2022-08-25T01:58:16;16.50;94.40
15241;DHT22;7723;52.170;9.978;2022-08-25T02:00:44;16.50;95.60
15241;DHT22;7723;52.170;9.978;2022-08-25T02:03:12;16.40;97.00
15241;DHT22;7723;52.170;9.978;2022-08-25T02:05:39;16.40;97.40
15241;DHT22;7723;52.170;9.978;2022-08-25T02:08:09;16.30;98.70
15241;DHT22;7723;52.170;9.978;2022-08-25T02:10:37;16.40;99.90
15241;DHT22;7723;52.170;9.978;2022-08-25T02:13:05;16.40;99.70
15241;DHT22;7723;52.170;9.978;2022-08-25T02:15:33;16.40;99.90
15241;DHT22;7723;52.170;9.978;2022-08-25T02:18:01;16.30;99.70
15241;DHT22;7723;52.170;9.978;2022-08-25T02:20:35;16.30;99.90
15241;DHT22;7723;52.170;9.978;2022-08-25T02:23:03;16.20;99.90
15241;DHT22;7723;52.170;9.978;2022-08-25T02:25:32;16.10;99.90
15241;DHT22;7723;52.170;9.978;2022-08-25T02:27:59;16.10;99.90
15241;DHT22;7723;52.170;9.978;2022-08-25T02:30:26;16.10;99.90
15241;DHT22;7723;52.170;9.978;2022-08-25T02:32:54;16.00;99.90
15241;DHT22;7723;52.170;9.978;2022-08-25T02:35:21;16.00;99.90
15241;DHT22;7723;52.170;9.978;2022-08-25T02:37:50;16.00;99.90
15241;DHT22;7723;52.170;9.978;2022-08-25T02:40:18;16.00;99.90
15241;DHT22;7723;52.170;9.978;2022-08-25T02:42:49;16.00;99.90
15241;DHT22;7723;52.170;9.978;2022-08-25T02:45:17;16.00;99.90
15241;DHT22;7723;52.170;9.978;2022-08-25T02:47:45;16.00;99.90
15241;DHT22;7723;52.170;9.978;2022-08-25T02:50:14;16.00;99.90
15241;DHT22;7723;52.170;9.978;2022-08-25T02:52:41;16.00;99.90
15241;DHT22;7723;52.170;9.978;2022-08-25T02:55:10;15.90;99.90
15241;DHT22;7723;52.170;9.978;2022-08-25T02:57:39;15.90;99.90
15241;DHT22;7723;52.170;9.978;2022-08-25T03:00:09;15.90;99.90
15241;DHT22;7723;52.170;9.978;2022-08-25T03:02:38;15.90;99.90
15241;DHT22;7723;52.170;9.978;2022-08-25T03:05:06;15.80;99.90
15241;DHT22;7723;52.170;9.978;2022-08-25T03:07:34;15.70;99.90
15241;DHT22;7723;52.170;9.978;2022-08-25T03:10:08;15.70;99.90
15241;DHT22;7723;52.170;9.978;2022-08-25T03:12:36;15.70;99.90
15241;DHT22;7723;52.170;9.978;2022-08-25T03:15:03;15.70;99.90
15241;DHT22;7723;52.170;9.978;2022-08-25T03:17:32;15.70;99.90
15241;DHT22;7723;52.170;9.978;2022-08-25T03:19:59;15.80;99.90
15241;DHT22;7723;52.170;9.978;2022-08-25T03:22:26;15.70;99.90
15241;DHT22;7723;52.170;9.978;2022-08-25T03:24:53;15.70;99.90
15241;DHT22;7723;52.170;9.978;2022-08-25T03:27:41;15.60;99.90
15241;DHT22;7723;52.170;9.978;2022-08-25T03:30:08;15.70;99.90
15241;DHT22;7723;52.170;9.978;2022-08-25T03:32:37;15.60;99.90
15241;DHT22;7723;52.170;9.978;2022-08-25T03:35:05;15.50;99.90
15241;DHT22;7723;52.170;9.978;2022-08-25T03:37:32;15.60;99.90
15241;DHT22;7723;52.170;9.978;2022-08-25T03:40:00;15.50;99.90
15241;DHT22;7723;52.170;9.978;2022-08-25T03:42:28;15.40;99.90
15241;DHT22;7723;52.170;9.978;2022-08-25T03:44:55;15.40;99.90
15241;DHT22;7723;52.170;9.978;2022-08-25T03:47:22;15.40;99.90
15241;DHT22;7723;52.170;9.978;2022-08-25T03:49:55;15.30;99.90
15241;DHT22;7723;52.170;9.978;2022-08-25T03:52:22;15.30;99.90
15241;DHT22;7723;52.170;9.978;2022-08-25T03:54:49;15.30;99.90
15241;DHT22;7723;52.170;9.978;2022-08-25T03:57:16;15.40;99.90
15241;DHT22;7723;52.170;9.978;2022-08-25T03:59:45;15.60;99.90
15241;DHT22;7723;52.170;9.978;2022-08-25T04:02:12;15.30;99.90
15241;DHT22;7723;52.170;9.978;2022-08-25T04:04:39;15.20;99.90
15241;DHT22;7723;52.170;9.978;2022-08-25T04:07:08;15.20;99.90
15241;DHT22;7723;52.170;9.978;2022-08-25T04:09:35;15.10;99.90
15241;DHT22;7723;52.170;9.978;2022-08-25T04:12:03;15.10;99.90
15241;DHT22;7723;52.170;9.978;2022-08-25T04:14:30;15.10;99.90
15241;DHT22;7723;52.170;9.978;2022-08-25T04:16:57;15.20;99.90
15241;DHT22;7723;52.170;9.978;2022-08-25T04:19:24;15.30;99.90
15241;DHT22;7723;52.170;9.978;2022-08-25T04:21:51;15.30;99.90
15241;DHT22;7723;52.170;9.978;2022-08-25T04:24:20;15.40;99.90
15241;DHT22;7723;52.170;9.978;2022-08-25T04:26:49;15.40;99.90
15241;DHT22;7723;52.170;9.978;2022-08-25T04:29:19;15.40;99.90
15241;DHT22;7723;52.170;9.978;2022-08-25T04:31:47;15.40;99.90
15241;DHT22;7723;52.170;9.978;2022-08-25T04:34:15;15.30;99.90
15241;DHT22;7723;52.170;9.978;2022-08-25T04:36:43;15.40;99.90
15241;DHT22;7723;52.170;9.978;2022-08-25T04:39:11;15.40;99.90
15241;DHT22;7723;52.170;9.978;2022-08-25T04:41:39;15.40;99.90
15241;DHT22;7723;52.170;9.978;2022-08-25T04:44:06;15.50;99.90
15241;DHT22;7723;52.170;9.978;2022-08-25T04:46:34;15.50;99.90
15241;DHT22;7723;52.170;9.978;2022-08-25T04:49:02;15.50;99.90
15241;DHT22;7723;52.170;9.978;2022-08-25T04:51:31;15.50;99.90
15241;DHT22;7723;52.170;9.978;2022-08-25T04:54:01;15.50;99.90
15241;DHT22;7723;52.170;9.978;2022-08-25T04:56:30;15.60;99.90
15241;DHT22;7723;52.170;9.978;2022-08-25T04:59:02;15.60;99.90
15241;DHT22;7723;52.170;9.978;2022-08-25T05:01:29;15.70;99.90
15241;DHT22;7723;52.170;9.978;2022-08-25T05:03:58;15.70;99.90
15241;DHT22;7723;52.170;9.978;2022-08-25T05:06:26;15.90;99.90
15241;DHT22;7723;52.170;9.978;2022-08-25T05:08:54;15.90;99.90
15241;DHT22;7723;52.170;9.978;2022-08-25T05:11:22;16.00;99.90
15241;DHT22;7723;52.170;9.978;2022-08-25T05:13:51;16.00;99.90
15241;DHT22;7723;52.170;9.978;2022-08-25T05:16:22;16.10;99.90
15241;DHT22;7723;52.170;9.978;2022-08-25T05:18:49;16.30;99.90
15241;DHT22;7723;52.170;9.978;2022-08-25T05:21:19;16.40;99.90
15241;DHT22;7723;52.170;9.978;2022-08-25T05:23:47;16.50;99.90
15241;DHT22;7723;52.170;9.978;2022-08-25T05:26:17;16.50;99.90
15241;DHT22;7723;52.170;9.978;2022-08-25T05:28:45;16.60;99.90
15241;DHT22;7723;52.170;9.978;2022-08-25T05:31:13;16.70;99.90
15241;DHT22;7723;52.170;9.978;2022-08-25T05:33:42;17.00;99.90
15241;DHT22;7723;52.170;9.978;2022-08-25T05:36:10;17.40;99.90
15241;DHT22;7723;52.170;9.978;2022-08-25T05:38:38;17.60;99.90
15241;DHT22;7723;52.170;9.978;2022-08-25T05:41:07;17.70;99.90
15241;DHT22;7723;52.170;9.978;2022-08-25T05:43:36;17.70;99.90
15241;DHT22;7723;52.170;9.978;2022-08-25T05:46:03;17.80;99.90
15241;DHT22;7723;52.170;9.978;2022-08-25T05:48:30;17.80;99.90
15241;DHT22;7723;52.170;9.978;2022-08-25T05:51:00;17.70;99.90
15241;DHT22;7723;52.170;9.978;2022-08-25T05:53:28;18.20;99.90
15241;DHT22;7723;52.170;9.978;2022-08-25T05:55:57;18.80;99.90
15241;DHT22;7723;52.170;9.978;2022-08-25T05:58:25;19.60;95.40
15241;DHT22;7723;52.170;9.978;2022-08-25T06:00:54;19.90;76.10
15241;DHT22;7723;52.170;9.978;2022-08-25T06:03:21;20.00;72.10
15241;DHT22;7723;52.170;9.978;2022-08-25T06:05:47;20.10;66.90
15241;DHT22;7723;52.170;9.978;2022-08-25T06:08:16;20.50;63.20
15241;DHT22;7723;52.170;9.978;2022-08-25T06:10:44;21.80;23.00
15241;DHT22;7723;52.170;9.978;2022-08-25T06:13:11;22.80;8.40
15241;DHT22;7723;52.170;9.978;2022-08-25T06:15:38;23.50;1.50
15241;DHT22;7723;52.170;9.978;2022-08-25T06:18:05;24.30;1.00
15241;DHT22;7723;52.170;9.978;2022-08-25T06:20:32;24.80;1.00
15241;DHT22;7723;52.170;9.978;2022-08-25T06:22:59;24.60;1.00
15241;DHT22;7723;52.170;9.978;2022-08-25T06:25:28;25.40;1.00
15241;DHT22;7723;52.170;9.978;2022-08-25T06:27:58;26.00;1.00
15241;DHT22;7723;52.170;9.978;2022-08-25T06:30:25;26.80;1.00
15241;DHT22;7723;52.170;9.978;2022-08-25T06:32:52;26.50;1.00
15241;DHT22;7723;52.170;9.978;2022-08-25T06:35:20;26.60;1.00
15241;DHT22;7723;52.170;9.978;2022-08-25T06:37:47;26.30;1.00
15241;DHT22;7723;52.170;9.978;2022-08-25T06:40:16;27.00;1.00
15241;DHT22;7723;52.170;9.978;2022-08-25T06:42:48;27.30;1.00
15241;DHT22;7723;52.170;9.978;2022-08-25T06:45:15;27.20;1.00
15241;DHT22;7723;52.170;9.978;2022-08-25T06:47:42;27.00;1.00
15241;DHT22;7723;52.170;9.978;2022-08-25T06:50:09;27.30;1.00
15241;DHT22;7723;52.170;9.978;2022-08-25T06:52:37;27.50;1.00
15241;DHT22;7723;52.170;9.978;2022-08-25T06:55:05;27.40;1.00
15241;DHT22;7723;52.170;9.978;2022-08-25T06:57:32;28.10;1.00
15241;DHT22;7723;52.170;9.978;2022-08-25T07:00:03;28.00;1.00
15241;DHT22;7723;52.170;9.978;2022-08-25T07:02:31;28.10;1.00
15241;DHT22;7723;52.170;9.978;2022-08-25T07:04:58;28.80;1.00
15241;DHT22;7723;52.170;9.978;2022-08-25T07:07:25;29.20;1.00
15241;DHT22;7723;52.170;9.978;2022-08-25T07:09:52;29.70;1.00
15241;DHT22;7723;52.170;9.978;2022-08-25T07:12:20;29.80;1.00
15241;DHT22;7723;52.170;9.978;2022-08-25T07:14:48;29.80;1.00
15241;DHT22;7723;52.170;9.978;2022-08-25T07:17:17;30.60;1.00
15241;DHT22;7723;52.170;9.978;2022-08-25T07:19:45;30.80;1.00
15241;DHT22;7723;52.170;9.978;2022-08-25T07:22:12;30.40;1.00
15241;DHT22;7723;52.170;9.978;2022-08-25T07:24:39;30.20;1.00
15241;DHT22;7723;52.170;9.978;2022-08-25T07:27:06;30.10;1.00
15241;DHT22;7723;52.170;9.978;2022-08-25T07:29:33;29.10;1.00
15241;DHT22;7723;52.170;9.978;2022-08-25T07:32:04;29.70;1.00
15241;DHT22;7723;52.170;9.978;2022-08-25T07:34:32;29.90;1.00
15241;DHT22;7723;52.170;9.978;2022-08-25T07:37:18;30.20;1.00
15241;DHT22;7723;52.170;9.978;2022-08-25T07:39:46;30.10;1.00
15241;DHT22;7723;52.170;9.978;2022-08-25T07:42:13;29.90;1.00
15241;DHT22;7723;52.170;9.978;2022-08-25T07:44:40;31.00;1.00
15241;DHT22;7723;52.170;9.978;2022-08-25T07:47:07;30.70;1.00
15241;DHT22;7723;52.170;9.978;2022-08-25T07:49:35;30.60;1.00
15241;DHT22;7723;52.170;9.978;2022-08-25T07:52:03;31.30;1.00
15241;DHT22;7723;52.170;9.978;2022-08-25T07:54:30;31.60;1.00
15241;DHT22;7723;52.170;9.978;2022-08-25T07:56:57;31.60;1.00
15241;DHT22;7723;52.170;9.978;2022-08-25T07:59:24;31.80;1.00
15241;DHT22;7723;52.170;9.978;2022-08-25T08:01:51;31.30;1.00
15241;DHT22;7723;52.170;9.978;2022-08-25T08:04:18;30.50;1.00
15241;DHT22;7723;52.170;9.978;2022-08-25T08:06:47;31.50;1.00
15241;DHT22;7723;52.170;9.978;2022-08-25T08:09:14;31.20;1.00
15241;DHT22;7723;52.170;9.978;2022-08-25T08:11:41;31.90;1.00
15241;DHT22;7723;52.170;9.978;2022-08-25T08:14:09;32.20;1.00
15241;DHT22;7723;52.170;9.978;2022-08-25T08:16:38;32.20;1.00
15241;DHT22;7723;52.170;9.978;2022-08-25T08:19:06;32.30;1.00
15241;DHT22;7723;52.170;9.978;2022-08-25T08:21:34;31.50;1.00
15241;DHT22;7723;52.170;9.978;2022-08-25T08:24:04;32.00;1.00
15241;DHT22;7723;52.170;9.978;2022-08-25T08:26:31;31.30;1.00
15241;DHT22;7723;52.170;9.978;2022-08-25T08:28:58;29.90;1.00
15241;DHT22;7723;52.170;9.978;2022-08-25T08:31:26;29.00;1.00
15241;DHT22;7723;52.170;9.978;2022-08-25T08:33:55;28.80;1.00
15241;DHT22;7723;52.170;9.978;2022-08-25T08:36:23;28.80;1.00
15241;DHT22;7723;52.170;9.978;2022-08-25T08:38:51;28.80;1.00
15241;DHT22;7723;52.170;9.978;2022-08-25T08:41:53;29.20;1.00
15241;DHT22;7723;52.170;9.978;2022-08-25T08:47:30;29.50;1.00
15241;DHT22;7723;52.170;9.978;2022-08-25T08:50:04;30.50;1.00
15241;DHT22;7723;52.170;9.978;2022-08-25T08:52:42;30.60;1.00
15241;DHT22;7723;52.170;9.978;2022-08-25T08:55:27;29.90;1.00
15241;DHT22;7723;52.170;9.978;2022-08-25T08:58:00;29.80;1.00
15241;DHT22;7723;52.170;9.978;2022-08-25T09:00:30;30.00;1.00
15241;DHT22;7723;52.170;9.978;2022-08-25T09:03:03;29.50;1.00
15241;DHT22;7723;52.170;9.978;2022-08-25T09:05:37;29.30;1.00
15241;DHT22;7723;52.170;9.978;2022-08-25T09:08:10;29.00;1.00
15241;DHT22;7723;52.170;9.978;2022-08-25T09:10:49;29.20;1.00
15241;DHT22;7723;52.170;9.978;2022-08-25T09:13:26;29.30;1.00
15241;DHT22;7723;52.170;9.978;2022-08-25T09:16:01;29.10;1.00
15241;DHT22;7723;52.170;9.978;2022-08-25T09:18:52;28.70;1.00
15241;DHT22;7723;52.170;9.978;2022-08-25T09:21:25;28.90;1.00
15241;DHT22;7723;52.170;9.978;2022-08-25T09:24:06;29.00;1.00
15241;DHT22;7723;52.170;9.978;2022-08-25T09:26:40;30.00;1.00
15241;DHT22;7723;52.170;9.978;2022-08-25T09:29:13;29.80;1.00
15241;DHT22;7723;52.170;9.978;2022-08-25T09:31:41;29.80;1.00
15241;DHT22;7723;52.170;9.978;2022-08-25T09:34:12;30.10;1.00
15241;DHT22;7723;52.170;9.978;2022-08-25T09:36:42;30.20;1.00
15241;DHT22;7723;52.170;9.978;2022-08-25T09:39:13;29.80;1.00
15241;DHT22;7723;52.170;9.978;2022-08-25T09:41:45;29.30;1.00
15241;DHT22;7723;52.170;9.978;2022-08-25T09:44:22;29.30;1.00
15241;DHT22;7723;52.170;9.978;2022-08-25T09:46:59;29.40;1.00
15241;DHT22;7723;52.170;9.978;2022-08-25T09:49:40;29.90;1.00
15241;DHT22;7723;52.170;9.978;2022-08-25T09:52:25;30.40;1.00
15241;DHT22;7723;52.170;9.978;2022-08-25T09:54:58;29.50;1.00
15241;DHT22;7723;52.170;9.978;2022-08-25T09:57:34;28.70;1.00
15241;DHT22;7723;52.170;9.978;2022-08-25T10:00:16;28.70;1.00
15241;DHT22;7723;52.170;9.978;2022-08-25T10:02:59;29.70;1.00
15241;DHT22;7723;52.170;9.978;2022-08-25T10:05:27;30.30;1.00
15241;DHT22;7723;52.170;9.978;2022-08-25T10:08:01;30.70;1.00
15241;DHT22;7723;52.170;9.978;2022-08-25T10:10:31;30.50;1.00
15241;DHT22;7723;52.170;9.978;2022-08-25T10:12:59;30.50;1.00
15241;DHT22;7723;52.170;9.978;2022-08-25T10:15:32;30.00;1.00
15241;DHT22;7723;52.170;9.978;2022-08-25T10:18:21;29.40;1.00
15241;DHT22;7723;52.170;9.978;2022-08-25T10:21:09;28.90;1.00
15241;DHT22;7723;52.170;9.978;2022-08-25T10:23:40;28.90;1.00
15241;DHT22;7723;52.170;9.978;2022-08-25T10:26:16;28.90;1.00
15241;DHT22;7723;52.170;9.978;2022-08-25T10:29:01;28.70;1.00
15241;DHT22;7723;52.170;9.978;2022-08-25T10:31:34;29.20;1.00
15241;DHT22;7723;52.170;9.978;2022-08-25T10:34:14;29.10;1.00
15241;DHT22;7723;52.170;9.978;2022-08-25T10:36:51;28.40;1.00
15241;DHT22;7723;52.170;9.978;2022-08-25T10:39:29;28.50;1.00
15241;DHT22;7723;52.170;9.978;2022-08-25T10:42:03;28.40;1.00
15241;DHT22;7723;52.170;9.978;2022-08-25T10:44:35;28.40;1.00
15241;DHT22;7723;52.170;9.978;2022-08-25T10:47:39;28.30;1.00
15241;DHT22;7723;52.170;9.978;2022-08-25T10:50:26;27.90;1.00
15241;DHT22;7723;52.170;9.978;2022-08-25T10:53:20;27.90;1.00
15241;DHT22;7723;52.170;9.978;2022-08-25T10:55:57;27.70;1.00
15241;DHT22;7723;52.170;9.978;2022-08-25T10:58:39;27.40;1.00
15241;DHT22;7723;52.170;9.978;2022-08-25T11:01:17;27.70;1.00
15241;DHT22;7723;52.170;9.978;2022-08-25T11:03:50;27.60;1.00
15241;DHT22;7723;52.170;9.978;2022-08-25T11:06:22;27.40;1.00
15241;DHT22;7723;52.170;9.978;2022-08-25T11:08:53;27.60;1.00
15241;DHT22;7723;52.170;9.978;2022-08-25T11:11:27;27.60;1.00
15241;DHT22;7723;52.170;9.978;2022-08-25T11:13:59;27.80;1.00
15241;DHT22;7723;52.170;9.978;2022-08-25T11:16:35;27.80;1.00
15241;DHT22;7723;52.170;9.978;2022-08-25T11:19:10;28.00;1.00
15241;DHT22;7723;52.170;9.978;2022-08-25T11:21:48;28.20;1.00
15241;DHT22;7723;52.170;9.978;2022-08-25T11:24:36;28.30;1.00
15241;DHT22;7723;52.170;9.978;2022-08-25T11:27:12;28.40;1.00
15241;DHT22;7723;52.170;9.978;2022-08-25T11:29:57;28.30;1.00
15241;DHT22;7723;52.170;9.978;2022-08-25T11:32:26;28.00;1.00
15241;DHT22;7723;52.170;9.978;2022-08-25T11:35:02;27.80;1.00
15241;DHT22;7723;52.170;9.978;2022-08-25T11:37:30;27.70;1.00
15241;DHT22;7723;52.170;9.978;2022-08-25T11:40:15;27.60;1.00
15241;DHT22;7723;52.170;9.978;2022-08-25T11:42:59;27.70;1.00
15241;DHT22;7723;52.170;9.978;2022-08-25T11:45:51;28.00;1.00
15241;DHT22;7723;52.170;9.978;2022-08-25T11:48:31;28.10;1.00
15241;DHT22;7723;52.170;9.978;2022-08-25T11:51:05;28.10;1.00
15241;DHT22;7723;52.170;9.978;2022-08-25T11:53:34;28.10;1.00
15241;DHT22;7723;52.170;9.978;2022-08-25T11:56:04;28.00;1.00
15241;DHT22;7723;52.170;9.978;2022-08-25T11:58:38;28.30;1.00
15241;DHT22;7723;52.170;9.978;2022-08-25T12:01:08;28.40;1.00
15241;DHT22;7723;52.170;9.978;2022-08-25T12:03:49;28.70;1.00
15241;DHT22;7723;52.170;9.978;2022-08-25T12:06:29;28.70;1.00
15241;DHT22;7723;52.170;9.978;2022-08-25T12:09:19;28.50;1.00
15241;DHT22;7723;52.170;9.978;2022-08-25T12:11:56;28.30;1.00
15241;DHT22;7723;52.170;9.978;2022-08-25T12:14:45;28.20;1.00
15241;DHT22;7723;52.170;9.978;2022-08-25T12:17:22;28.60;1.00
15241;DHT22;7723;52.170;9.978;2022-08-25T12:19:57;28.30;1.00
15241;DHT22;7723;52.170;9.978;2022-08-25T12:22:53;28.30;1.00
15241;DHT22;7723;52.170;9.978;2022-08-25T12:25:42;28.50;1.00
15241;DHT22;7723;52.170;9.978;2022-08-25T12:28:30;28.40;1.00
15241;DHT22;7723;52.170;9.978;2022-08-25T12:31:04;28.60;1.00
15241;DHT22;7723;52.170;9.978;2022-08-25T12:33:42;28.60;1.00
15241;DHT22;7723;52.170;9.978;2022-08-25T12:36:25;28.60;1.00
15241;DHT22;7723;52.170;9.978;2022-08-25T12:39:17;28.90;1.00
15241;DHT22;7723;52.170;9.978;2022-08-25T12:41:54;28.90;1.00
15241;DHT22;7723;52.170;9.978;2022-08-25T12:44:40;28.50;1.00
15241;DHT22;7723;52.170;9.978;2022-08-25T12:47:26;28.40;1.00
15241;DHT22;7723;52.170;9.978;2022-08-25T12:50:32;28.40;1.00
15241;DHT22;7723;52.170;9.978;2022-08-25T12:53:09;28.60;1.00
15241;DHT22;7723;52.170;9.978;2022-08-25T12:55:43;28.40;1.00
15241;DHT22;7723;52.170;9.978;2022-08-25T12:58:12;28.70;1.00
15241;DHT22;7723;52.170;9.978;2022-08-25T13:00:53;28.70;1.00
15241;DHT22;7723;52.170;9.978;2022-08-25T13:03:42;28.70;1.00
15241;DHT22;7723;52.170;9.978;2022-08-25T13:06:25;28.90;1.00
15241;DHT22;7723;52.170;9.978;2022-08-25T13:09:41;28.90;1.00
15241;DHT22;7723;52.170;9.978;2022-08-25T13:12:17;28.70;1.00
15241;DHT22;7723;52.170;9.978;2022-08-25T13:14:52;28.40;1.00
15241;DHT22;7723;52.170;9.978;2022-08-25T13:17:28;28.40;1.00
15241;DHT22;7723;52.170;9.978;2022-08-25T13:20:16;28.20;1.00
15241;DHT22;7723;52.170;9.978;2022-08-25T13:22:46;28.20;1.00
15241;DHT22;7723;52.170;9.978;2022-08-25T13:25:15;28.20;1.00
15241;DHT22;7723;52.170;9.978;2022-08-25T13:27:49;28.30;1.00
15241;DHT22;7723;52.170;9.978;2022-08-25T13:30:26;28.40;1.00
15241;DHT22;7723;52.170;9.978;2022-08-25T13:32:53;28.50;1.00
15241;DHT22;7723;52.170;9.978;2022-08-25T13:35:23;28.50;1.00
15241;DHT22;7723;52.170;9.978;2022-08-25T13:37:51;28.40;1.00
15241;DHT22;7723;52.170;9.978;2022-08-25T13:40:23;28.60;1.00
15241;DHT22;7723;52.170;9.978;2022-08-25T13:42:54;28.90;1.00
15241;DHT22;7723;52.170;9.978;2022-08-25T13:45:24;28.90;1.00
15241;DHT22;7723;52.170;9.978;2022-08-25T13:47:52;28.80;1.00
15241;DHT22;7723;52.170;9.978;2022-08-25T13:50:28;28.70;1.00
15241;DHT22;7723;52.170;9.978;2022-08-25T13:52:58;28.50;1.00
15241;DHT22;7723;52.170;9.978;2022-08-25T13:55:31;28.60;1.00
15241;DHT22;7723;52.170;9.978;2022-08-25T13:58:01;28.60;1.00
15241;DHT22;7723;52.170;9.978;2022-08-25T14:00:32;28.80;1.00
15241;DHT22;7723;52.170;9.978;2022-08-25T14:03:02;28.70;1.00
15241;DHT22;7723;52.170;9.978;2022-08-25T14:05:38;28.70;1.00
15241;DHT22;7723;52.170;9.978;2022-08-25T14:08:07;28.80;1.00
15241;DHT22;7723;52.170;9.978;2022-08-25T14:11:05;28.90;1.00
15241;DHT22;7723;52.170;9.978;2022-08-25T14:13:34;29.00;1.00
15241;DHT22;7723;52.170;9.978;2022-08-25T14:16:10;28.80;1.00
15241;DHT22;7723;52.170;9.978;2022-08-25T14:18:46;28.90;1.00
15241;DHT22;7723;52.170;9.978;2022-08-25T14:21:14;29.00;1.00
15241;DHT22;7723;52.170;9.978;2022-08-25T14:23:41;29.00;1.00
15241;DHT22;7723;52.170;9.978;2022-08-25T14:26:09;29.20;1.00
15241;DHT22;7723;52.170;9.978;2022-08-25T14:28:37;29.10;1.00
15241;DHT22;7723;52.170;9.978;2022-08-25T14:31:07;29.10;1.00
15241;DHT22;7723;52.170;9.978;2022-08-25T14:33:37;29.10;1.00
15241;DHT22;7723;52.170;9.978;2022-08-25T14:36:06;29.00;1.00
15241;DHT22;7723;52.170;9.978;2022-08-25T14:38:33;28.90;1.00
15241;DHT22;7723;52.170;9.978;2022-08-25T14:41:03;28.90;1.00
15241;DHT22;7723;52.170;9.978;2022-08-25T14:43:31;28.80;1.00
15241;DHT22;7723;52.170;9.978;2022-08-25T14:46:02;28.80;1.00
15241;DHT22;7723;52.170;9.978;2022-08-25T14:48:37;28.80;1.00
15241;DHT22;7723;52.170;9.978;2022-08-25T14:51:06;28.70;1.00
15241;DHT22;7723;52.170;9.978;2022-08-25T14:53:33;28.70;1.00
15241;DHT22;7723;52.170;9.978;2022-08-25T14:56:00;28.80;1.00
15241;DHT22;7723;52.170;9.978;2022-08-25T14:58:28;28.70;1.00
15241;DHT22;7723;52.170;9.978;2022-08-25T15:00:55;28.70;1.00
15241;DHT22;7723;52.170;9.978;2022-08-25T15:03:28;28.70;1.00
15241;DHT22;7723;52.170;9.978;2022-08-25T15:05:56;28.70;1.00
15241;DHT22;7723;52.170;9.978;2022-08-25T15:08:23;28.70;1.00
15241;DHT22;7723;52.170;9.978;2022-08-25T15:11:08;28.70;1.00
15241;DHT22;7723;52.170;9.978;2022-08-25T15:13:35;28.70;1.00
15241;DHT22;7723;52.170;9.978;2022-08-25T15:16:03;28.80;1.00
15241;DHT22;7723;52.170;9.978;2022-08-25T15:18:31;28.60;1.00
15241;DHT22;7723;52.170;9.978;2022-08-25T15:20:59;28.70;1.00
15241;DHT22;7723;52.170;9.978;2022-08-25T15:23:26;28.60;1.00
15241;DHT22;7723;52.170;9.978;2022-08-25T15:25:54;28.60;1.00
15241;DHT22;7723;52.170;9.978;2022-08-25T15:28:21;28.70;1.00
15241;DHT22;7723;52.170;9.978;2022-08-25T15:30:50;28.70;1.00
15241;DHT22;7723;52.170;9.978;2022-08-25T15:33:17;28.60;1.00
15241;DHT22;7723;52.170;9.978;2022-08-25T15:35:45;28.60;1.00
15241;DHT22;7723;52.170;9.978;2022-08-25T15:38:13;28.60;1.00
15241;DHT22;7723;52.170;9.978;2022-08-25T15:40:40;28.70;1.00
15241;DHT22;7723;52.170;9.978;2022-08-25T15:43:08;28.80;1.00
15241;DHT22;7723;52.170;9.978;2022-08-25T15:45:35;28.90;1.00
15241;DHT22;7723;52.170;9.978;2022-08-25T15:48:03;28.90;1.00
15241;DHT22;7723;52.170;9.978;2022-08-25T15:50:31;28.90;1.00
15241;DHT22;7723;52.170;9.978;2022-08-25T15:53:00;28.80;1.00
15241;DHT22;7723;52.170;9.978;2022-08-25T15:55:27;28.70;1.00
15241;DHT22;7723;52.170;9.978;2022-08-25T15:57:54;28.60;1.00
15241;DHT22;7723;52.170;9.978;2022-08-25T16:00:21;28.60;1.00
15241;DHT22;7723;52.170;9.978;2022-08-25T16:02:49;28.70;1.00
15241;DHT22;7723;52.170;9.978;2022-08-25T16:05:17;28.50;1.00
15241;DHT22;7723;52.170;9.978;2022-08-25T16:07:44;28.50;1.00
15241;DHT22;7723;52.170;9.978;2022-08-25T16:10:13;28.50;1.00
15241;DHT22;7723;52.170;9.978;2022-08-25T16:12:40;28.30;1.00
15241;DHT22;7723;52.170;9.978;2022-08-25T16:15:08;28.30;1.00
15241;DHT22;7723;52.170;9.978;2022-08-25T16:17:35;28.30;1.00
15241;DHT22;7723;52.170;9.978;2022-08-25T16:20:03;28.20;1.00
15241;DHT22;7723;52.170;9.978;2022-08-25T16:22:30;28.20;1.00
15241;DHT22;7723;52.170;9.978;2022-08-25T16:24:57;28.20;1.00